Terminal Aerodrome Forecast
Issued by NWS Twin Cities, MN

Home | Current Version | Previous Version | Graphics & Text | Print | Product List | Glossary On
Versions: 1 2 3 4 5 6 7 8 9 10 11 12 13 14 15 16 17
208
FTUS43 KMPX 170159 AAA
TAFEAU
TAF AMD
KEAU 170159Z 1702/1724 11011KT 6SM -RA BR SCT020 OVC040
      TEMPO 1703/1706 3SM RA BKN015
     FM170600 14006KT 4SM BR VCSH OVC009
     FM171500 22008KT 6SM BR VCSH OVC007
     FM171700 30010G17KT 2SM -DZ BR OVC007
     FM172200 31014G21KT P6SM OVC015=

USA.gov is the U.S. government's official web portal to all federal, state and local government web resources and services.